Time;durP1;ratioP1;P1;durP2;ratioP2;P2;SDS_P1;SDS_P2;PMS_P1;PMS_P2;Temp;Humidity;BMP_temperature;BMP_pressure;BME280_temperature;BME280_humidity;BME280_pressure;Samples;Min_cycle;Max_cycle;Signal;HPM_P1;HPM_P2
2022/05/18 00:02:06;;;;;;;8.60;4.30;;;;;;;;;;5020207;28;20080;-69
2022/05/18 00:04:36;;;;;;;7.03;3.97;;;;;;;;;;5020183;28;21385;-70
2022/05/18 00:07:04;;;;;;;7.95;4.30;;;;;;;;;;5018190;28;20129;-70
2022/05/18 00:09:33;;;;;;;7.78;4.43;;;;;;;;;;5020900;28;20140;-69
2022/05/18 00:12:01;;;;;;;8.35;4.75;;;;;;;;;;5017777;28;20045;-69
2022/05/18 00:14:29;;;;;;;8.07;4.38;;;;;;;;;;5025003;28;20071;-70
2022/05/18 00:16:59;;;;;;;8.38;3.78;;;;;;;;;;5025412;28;20144;-70
2022/05/18 00:19:28;;;;;;;6.85;3.55;;;;;;;;;;5024854;28;20057;-69
2022/05/18 00:21:58;;;;;;;7.45;4.10;;;;;;;;;;5025398;28;20129;-69
2022/05/18 00:24:26;;;;;;;10.48;4.60;;;;;;;;;;5026233;28;20092;-70
2022/05/18 00:26:54;;;;;;;9.10;4.53;;;;;;;;;;5019662;28;20049;-69
2022/05/18 00:29:22;;;;;;;7.53;4.50;;;;;;;;;;5026152;28;20045;-69
2022/05/18 00:31:51;;;;;;;12.88;5.28;;;;;;;;;;5013728;28;20073;-69
2022/05/18 00:34:19;;;;;;;16.02;5.50;;;;;;;;;;5020976;28;20084;-70
2022/05/18 00:36:48;;;;;;;8.95;5.10;;;;;;;;;;5020914;28;20083;-69
2022/05/18 00:39:19;;;;;;;11.65;5.18;;;;;;;;;;5022844;28;20818;-69
2022/05/18 00:41:47;;;;;;;9.57;4.38;;;;;;;;;;5019807;28;20505;-70
2022/05/18 00:44:15;;;;;;;6.38;4.55;;;;;;;;;;5024515;28;20069;-69
2022/05/18 00:46:44;;;;;;;10.18;4.97;;;;;;;;;;5014339;28;20144;-70
2022/05/18 00:49:12;;;;;;;7.18;4.18;;;;;;;;;;5014066;28;20573;-70
2022/05/18 00:51:42;;;;;;;7.90;4.50;;;;;;;;;;5012498;28;20054;-69
2022/05/18 00:54:13;;;;;;;6.63;4.07;;;;;;;;;;5016673;28;20060;-70
2022/05/18 00:56:44;;;;;;;9.73;4.32;;;;;;;;;;5019211;28;20500;-70
2022/05/18 00:59:13;;;;;;;10.20;3.65;;;;;;;;;;5019245;28;20113;-69
2022/05/18 01:01:42;;;;;;;5.95;4.53;;;;;;;;;;5017136;28;20180;-69
2022/05/18 01:04:11;;;;;;;8.55;4.10;;;;;;;;;;5024236;28;20115;-70
2022/05/18 01:06:42;;;;;;;9.63;4.38;;;;;;;;;;5018081;28;20183;-69
2022/05/18 01:09:12;;;;;;;8.13;4.70;;;;;;;;;;5022234;28;20088;-70
2022/05/18 01:11:40;;;;;;;9.10;4.40;;;;;;;;;;5019671;28;20528;-69
2022/05/18 01:14:13;;;;;;;15.65;4.80;;;;;;;;;;5025743;28;20455;-69
2022/05/18 01:16:41;;;;;;;7.43;4.30;;;;;;;;;;5025225;28;20049;-70
2022/05/18 01:19:14;;;;;;;7.22;4.40;;;;;;;;;;5027011;28;20045;-70
2022/05/18 01:21:45;;;;;;;7.72;4.78;;;;;;;;;;5025045;28;20129;-69
2022/05/18 01:24:19;;;;;;;6.55;4.53;;;;;;;;;;5029045;28;20050;-70
2022/05/18 01:26:49;;;;;;;8.60;4.22;;;;;;;;;;5026528;28;20076;-69
2022/05/18 01:29:20;;;;;;;7.28;4.43;;;;;;;;;;5024132;28;20282;-70
2022/05/18 01:31:50;;;;;;;11.15;4.30;;;;;;;;;;5020724;28;20497;-70
2022/05/18 01:34:21;;;;;;;7.28;3.90;;;;;;;;;;5025022;28;20500;-69
2022/05/18 01:36:49;;;;;;;9.25;5.03;;;;;;;;;;5023718;28;20134;-69
2022/05/18 01:39:20;;;;;;;8.35;4.60;;;;;;;;;;5026785;28;20081;-69
2022/05/18 01:41:52;;;;;;;10.25;4.70;;;;;;;;;;5025651;28;20136;-69
2022/05/18 01:44:20;;;;;;;6.97;4.45;;;;;;;;;;5027490;28;20055;-70
2022/05/18 01:46:49;;;;;;;6.95;4.32;;;;;;;;;;5022653;28;20078;-69
2022/05/18 01:49:17;;;;;;;5.53;3.75;;;;;;;;;;5020376;28;20050;-70
2022/05/18 01:51:47;;;;;;;8.07;4.15;;;;;;;;;;5016351;28;20124;-70
2022/05/18 01:54:16;;;;;;;12.02;4.35;;;;;;;;;;5026797;28;20139;-69
2022/05/18 01:56:44;;;;;;;6.45;3.65;;;;;;;;;;5014693;28;20038;-69
2022/05/18 01:59:14;;;;;;;6.65;3.78;;;;;;;;;;5017819;28;20179;-69
2022/05/18 02:01:44;;;;;;;9.55;4.07;;;;;;;;;;5012275;28;20076;-69
2022/05/18 02:04:12;;;;;;;9.27;4.25;;;;;;;;;;5018980;28;20060;-69
2022/05/18 02:06:41;;;;;;;11.35;4.60;;;;;;;;;;5024114;28;20531;-69
2022/05/18 02:09:10;;;;;;;9.52;4.53;;;;;;;;;;5021266;28;20120;-69
2022/05/18 02:11:38;;;;;;;8.73;4.40;;;;;;;;;;5026589;28;20081;-69
2022/05/18 02:14:06;;;;;;;9.38;5.00;;;;;;;;;;5016507;28;20128;-69
2022/05/18 02:16:36;;;;;;;9.77;4.40;;;;;;;;;;5027546;28;20133;-69
2022/05/18 02:19:05;;;;;;;8.68;4.60;;;;;;;;;;5023957;28;20053;-69
2022/05/18 02:21:33;;;;;;;8.68;4.18;;;;;;;;;;5014574;28;20421;-69
2022/05/18 02:24:02;;;;;;;7.57;4.32;;;;;;;;;;5027917;28;20153;-69
2022/05/18 02:26:30;;;;;;;8.70;4.35;;;;;;;;;;5029909;28;20160;-70
2022/05/18 02:28:58;;;;;;;7.65;4.28;;;;;;;;;;5025056;28;20092;-69
2022/05/18 02:31:27;;;;;;;9.52;4.57;;;;;;;;;;5018315;28;20111;-69
2022/05/18 02:33:56;;;;;;;11.00;4.63;;;;;;;;;;5023476;28;20084;-69
2022/05/18 02:36:26;;;;;;;8.55;4.80;;;;;;;;;;5024862;28;20096;-69
2022/05/18 02:38:55;;;;;;;10.05;4.80;;;;;;;;;;5022036;28;20237;-69
2022/05/18 02:41:23;;;;;;;8.23;4.85;;;;;;;;;;5025549;28;20588;-70
2022/05/18 02:43:52;;;;;;;10.63;4.50;;;;;;;;;;5031275;28;20088;-69
2022/05/18 02:46:22;;;;;;;9.13;4.38;;;;;;;;;;5019830;28;20045;-69
2022/05/18 02:48:52;;;;;;;7.95;4.45;;;;;;;;;;5028917;28;20057;-69
2022/05/18 02:51:22;;;;;;;7.50;4.38;;;;;;;;;;5024706;28;20505;-69
2022/05/18 02:53:51;;;;;;;8.45;5.03;;;;;;;;;;5024613;28;20128;-70
2022/05/18 02:56:26;;;;;;;9.05;4.55;;;;;;;;;;5027662;28;20084;-69
2022/05/18 02:58:56;;;;;;;8.18;4.47;;;;;;;;;;5026714;28;20072;-69
2022/05/18 03:01:25;;;;;;;9.35;5.47;;;;;;;;;;5027426;28;20049;-70
2022/05/18 03:03:54;;;;;;;7.82;4.72;;;;;;;;;;5023323;28;20468;-69
2022/05/18 03:06:25;;;;;;;8.55;4.53;;;;;;;;;;5028376;28;20056;-70
2022/05/18 03:08:54;;;;;;;7.82;4.25;;;;;;;;;;5027008;28;20140;-69
2022/05/18 03:11:23;;;;;;;8.35;4.82;;;;;;;;;;5026806;28;20075;-69
2022/05/18 03:13:51;;;;;;;7.53;4.28;;;;;;;;;;5016765;28;20133;-69
2022/05/18 03:16:19;;;;;;;9.20;4.30;;;;;;;;;;5019880;28;20109;-70
2022/05/18 03:18:48;;;;;;;6.95;4.07;;;;;;;;;;5026413;28;20049;-70
2022/05/18 03:24:04;;;;;;;7.05;4.32;;;;;;;;;;5022780;28;20132;-69
2022/05/18 03:26:33;;;;;;;7.88;4.18;;;;;;;;;;5026039;28;20125;-69
2022/05/18 03:29:01;;;;;;;11.80;4.88;;;;;;;;;;5021236;28;20052;-69
2022/05/18 03:31:30;;;;;;;6.95;4.10;;;;;;;;;;5023281;28;20605;-69
2022/05/18 03:33:59;;;;;;;6.85;4.20;;;;;;;;;;5022639;28;20052;-69
2022/05/18 03:36:27;;;;;;;6.85;4.13;;;;;;;;;;5025378;28;20050;-70
2022/05/18 03:38:56;;;;;;;7.57;4.20;;;;;;;;;;5026214;28;20465;-69
2022/05/18 03:41:26;;;;;;;6.55;4.13;;;;;;;;;;5025178;28;20073;-69
2022/05/18 03:43:55;;;;;;;7.80;4.25;;;;;;;;;;5016111;28;20050;-69
2022/05/18 03:46:23;;;;;;;7.70;4.30;;;;;;;;;;5018817;28;20497;-69
2022/05/18 03:48:52;;;;;;;10.27;4.65;;;;;;;;;;5021148;28;20132;-69
2022/05/18 03:51:20;;;;;;;7.45;4.10;;;;;;;;;;5023679;28;20088;-69
2022/05/18 03:53:48;;;;;;;7.78;4.03;;;;;;;;;;5023652;28;20132;-69
2022/05/18 03:56:17;;;;;;;10.68;4.30;;;;;;;;;;5019120;28;20045;-69
2022/05/18 03:58:47;;;;;;;7.68;4.40;;;;;;;;;;5026936;28;20127;-69
2022/05/18 04:01:15;;;;;;;5.95;3.58;;;;;;;;;;5017885;28;20586;-69
2022/05/18 04:03:46;;;;;;;7.63;4.25;;;;;;;;;;5009905;28;20421;-70
2022/05/18 04:06:15;;;;;;;7.63;4.40;;;;;;;;;;5024647;28;20050;-69
2022/05/18 04:08:44;;;;;;;6.05;3.97;;;;;;;;;;5029089;28;20119;-70
2022/05/18 04:11:13;;;;;;;6.13;3.95;;;;;;;;;;5024533;28;20128;-69
2022/05/18 04:13:41;;;;;;;7.10;3.97;;;;;;;;;;5025495;28;20109;-69
2022/05/18 04:16:11;;;;;;;5.00;3.40;;;;;;;;;;5019250;28;20049;-69
2022/05/18 04:18:39;;;;;;;7.50;3.78;;;;;;;;;;5024252;28;20523;-69
2022/05/18 04:21:10;;;;;;;7.40;4.07;;;;;;;;;;5022695;28;20144;-69
2022/05/18 04:23:39;;;;;;;6.80;3.70;;;;;;;;;;5027605;28;20132;-69
2022/05/18 04:26:10;;;;;;;7.40;3.78;;;;;;;;;;5026528;28;20485;-69
2022/05/18 04:28:39;;;;;;;8.00;4.13;;;;;;;;;;5016619;28;20045;-69
2022/05/18 04:31:11;;;;;;;7.57;4.13;;;;;;;;;;5024901;28;20512;-69
2022/05/18 04:33:40;;;;;;;9.65;4.65;;;;;;;;;;5025761;28;20084;-69
2022/05/18 04:36:11;;;;;;;7.78;3.78;;;;;;;;;;5025709;28;20121;-68
2022/05/18 04:38:39;;;;;;;7.43;4.22;;;;;;;;;;5017958;28;20497;-70
2022/05/18 04:41:11;;;;;;;8.02;4.00;;;;;;;;;;5032790;28;20049;-69
2022/05/18 04:43:40;;;;;;;7.50;4.18;;;;;;;;;;5029256;28;20136;-69
2022/05/18 04:46:12;;;;;;;8.35;4.05;;;;;;;;;;5023861;28;20119;-69
2022/05/18 04:48:41;;;;;;;8.00;4.28;;;;;;;;;;5013683;28;20049;-69
2022/05/18 04:51:09;;;;;;;8.02;4.55;;;;;;;;;;5018428;28;20572;-69
2022/05/18 04:53:38;;;;;;;7.45;4.57;;;;;;;;;;5024083;28;20049;-69
2022/05/18 04:56:09;;;;;;;7.25;4.35;;;;;;;;;;5025905;28;20548;-68
2022/05/18 04:58:37;;;;;;;9.00;4.55;;;;;;;;;;5021162;28;20170;-69
2022/05/18 05:01:10;;;;;;;6.63;4.22;;;;;;;;;;5011647;28;20236;-69
2022/05/18 05:03:39;;;;;;;10.93;4.20;;;;;;;;;;5010846;28;20522;-69
2022/05/18 05:06:11;;;;;;;5.78;3.90;;;;;;;;;;5012310;28;20565;-68
2022/05/18 05:08:39;;;;;;;7.72;4.03;;;;;;;;;;5016348;28;20081;-69
2022/05/18 05:11:10;;;;;;;7.70;4.13;;;;;;;;;;5018305;28;20046;-69
2022/05/18 05:13:38;;;;;;;8.55;4.97;;;;;;;;;;5020523;28;20132;-70
2022/05/18 05:16:11;;;;;;;9.77;4.55;;;;;;;;;;5014479;28;20133;-70
2022/05/18 05:18:40;;;;;;;6.70;4.15;;;;;;;;;;5010171;28;20058;-69
2022/05/18 05:21:09;;;;;;;6.20;3.88;;;;;;;;;;5023697;28;20045;-69
2022/05/18 05:23:37;;;;;;;8.75;4.80;;;;;;;;;;5010678;28;20127;-69
2022/05/18 05:26:08;;;;;;;9.75;4.95;;;;;;;;;;5001896;28;20207;-69
2022/05/18 05:28:37;;;;;;;8.18;4.60;;;;;;;;;;4998934;28;20055;-69
2022/05/18 05:31:08;;;;;;;6.85;4.22;;;;;;;;;;5001394;28;20049;-69
2022/05/18 05:33:37;;;;;;;7.07;5.05;;;;;;;;;;5003907;28;20286;-70
2022/05/18 05:36:11;;;;;;;9.15;4.78;;;;;;;;;;4996244;28;20050;-71
2022/05/18 05:38:39;;;;;;;7.82;4.45;;;;;;;;;;5014169;28;20053;-69
2022/05/18 05:41:10;;;;;;;10.85;5.05;;;;;;;;;;5024661;28;20073;-69
2022/05/18 05:43:40;;;;;;;8.85;5.22;;;;;;;;;;5023975;28;20120;-69
2022/05/18 05:46:13;;;;;;;9.20;5.38;;;;;;;;;;5023016;28;20049;-68
2022/05/18 05:48:43;;;;;;;8.23;5.03;;;;;;;;;;5023086;28;20201;-69
2022/05/18 05:51:13;;;;;;;9.15;5.00;;;;;;;;;;5024373;28;20132;-69
2022/05/18 05:53:42;;;;;;;10.63;5.50;;;;;;;;;;5024467;28;20092;-69
2022/05/18 05:56:10;;;;;;;12.68;5.95;;;;;;;;;;5032683;28;20532;-69
2022/05/18 05:58:39;;;;;;;9.60;5.15;;;;;;;;;;5026628;28;20053;-70
2022/05/18 06:01:12;;;;;;;9.68;5.97;;;;;;;;;;5030681;28;20046;-69
2022/05/18 06:03:40;;;;;;;11.60;5.95;;;;;;;;;;5028402;28;20038;-69
2022/05/18 06:06:13;;;;;;;8.40;5.70;;;;;;;;;;5018553;28;20050;-69
2022/05/18 06:08:42;;;;;;;12.10;6.40;;;;;;;;;;5029776;28;20553;-69
2022/05/18 06:11:11;;;;;;;12.85;6.45;;;;;;;;;;5031817;28;20046;-69
2022/05/18 06:13:40;;;;;;;12.30;6.82;;;;;;;;;;5032772;28;20077;-69
2022/05/18 06:16:11;;;;;;;12.77;6.57;;;;;;;;;;5026083;28;20568;-69
2022/05/18 06:18:40;;;;;;;12.30;6.90;;;;;;;;;;5029370;28;20050;-69
2022/05/18 06:21:11;;;;;;;11.75;6.35;;;;;;;;;;5031843;28;20049;-69
2022/05/18 06:23:41;;;;;;;9.05;5.53;;;;;;;;;;5029040;28;20132;-69
2022/05/18 06:26:09;;;;;;;12.98;6.60;;;;;;;;;;5031916;28;20073;-69
2022/05/18 06:28:40;;;;;;;13.73;6.45;;;;;;;;;;5030687;28;20136;-69
2022/05/18 06:31:11;;;;;;;14.10;6.85;;;;;;;;;;5013127;28;20046;-69
2022/05/18 06:33:40;;;;;;;13.95;7.13;;;;;;;;;;5024522;28;20053;-69
2022/05/18 06:36:12;;;;;;;14.77;7.75;;;;;;;;;;5029491;28;20452;-69
2022/05/18 06:38:42;;;;;;;15.07;7.47;;;;;;;;;;5031464;28;20482;-69
2022/05/18 06:41:22;;;;;;;13.10;6.93;;;;;;;;;;5025210;28;20049;-68
2022/05/18 06:43:51;;;;;;;14.30;6.88;;;;;;;;;;5031280;28;20053;-69
2022/05/18 06:46:20;;;;;;;11.27;6.35;;;;;;;;;;5018615;28;20096;-69
2022/05/18 06:48:48;;;;;;;12.10;6.68;;;;;;;;;;5025140;28;20076;-69
2022/05/18 06:51:19;;;;;;;13.68;6.90;;;;;;;;;;5022764;28;20461;-69
2022/05/18 06:53:51;;;;;;;14.50;6.30;;;;;;;;;;5029310;28;20045;-69
2022/05/18 06:56:20;;;;;;;10.95;6.50;;;;;;;;;;5022920;28;20083;-69
2022/05/18 06:58:49;;;;;;;11.20;5.80;;;;;;;;;;5028950;28;20085;-69
2022/05/18 07:01:18;;;;;;;10.02;5.47;;;;;;;;;;5031858;28;20132;-69
2022/05/18 07:03:47;;;;;;;8.65;5.15;;;;;;;;;;5030910;28;20650;-69
2022/05/18 07:06:16;;;;;;;8.88;5.30;;;;;;;;;;5026073;28;20046;-69
2022/05/18 07:08:44;;;;;;;9.85;4.93;;;;;;;;;;5031094;28;20387;-70
2022/05/18 07:11:14;;;;;;;7.32;4.93;;;;;;;;;;5026432;28;20046;-69
2022/05/18 07:13:43;;;;;;;11.43;5.68;;;;;;;;;;5031553;28;20092;-69
2022/05/18 07:16:12;;;;;;;9.25;4.47;;;;;;;;;;5018580;28;20096;-69
2022/05/18 07:18:41;;;;;;;9.00;5.55;;;;;;;;;;5025506;28;20042;-69
2022/05/18 07:21:13;;;;;;;9.07;5.10;;;;;;;;;;5028338;28;20056;-69
2022/05/18 07:23:41;;;;;;;10.07;5.13;;;;;;;;;;5025985;28;20049;-69
2022/05/18 07:26:10;;;;;;;12.00;5.70;;;;;;;;;;5018635;28;20048;-70
2022/05/18 07:28:40;;;;;;;9.75;4.60;;;;;;;;;;5021691;28;20305;-69
2022/05/18 07:31:12;;;;;;;8.48;4.30;;;;;;;;;;5018528;28;20045;-69
2022/05/18 07:34:00;;;;;;;8.73;4.75;;;;;;;;;;5029839;28;20085;-69
2022/05/18 07:36:29;;;;;;;6.55;4.85;;;;;;;;;;5024689;28;20119;-69
2022/05/18 07:38:57;;;;;;;8.68;5.10;;;;;;;;;;5024405;28;20103;-69
2022/05/18 07:41:26;;;;;;;8.88;5.35;;;;;;;;;;5023638;28;20049;-69
2022/05/18 07:43:56;;;;;;;6.65;4.05;;;;;;;;;;5019808;28;20053;-68
2022/05/18 07:46:24;;;;;;;8.48;5.15;;;;;;;;;;5020098;28;20041;-69
2022/05/18 07:48:53;;;;;;;8.23;4.78;;;;;;;;;;5028230;28;20401;-68
2022/05/18 07:51:21;;;;;;;9.32;5.18;;;;;;;;;;5028512;28;20463;-69
2022/05/18 07:53:50;;;;;;;7.72;5.15;;;;;;;;;;5018008;28;20056;-68
2022/05/18 07:56:18;;;;;;;8.60;5.10;;;;;;;;;;5024966;28;20507;-69
2022/05/18 07:58:49;;;;;;;8.15;4.28;;;;;;;;;;5019368;28;20045;-69
2022/05/18 08:01:19;;;;;;;8.45;4.75;;;;;;;;;;5026638;28;20046;-68
2022/05/18 08:03:48;;;;;;;8.35;4.50;;;;;;;;;;5028001;28;20385;-70
2022/05/18 08:06:17;;;;;;;7.78;4.45;;;;;;;;;;5033978;28;20579;-69
2022/05/18 08:08:45;;;;;;;8.73;4.32;;;;;;;;;;5029421;28;20061;-69
2022/05/18 08:16:48;;;;;;;7.22;4.65;;;;;;;;;;5038174;28;20535;-70
2022/05/18 08:19:16;;;;;;;5.63;4.18;;;;;;;;;;5030555;28;20037;-69
2022/05/18 08:21:47;;;;;;;6.80;4.38;;;;;;;;;;5025170;28;20132;-69
2022/05/18 08:24:16;;;;;;;11.32;4.25;;;;;;;;;;5024557;28;20046;-71
2022/05/18 08:26:44;;;;;;;10.65;5.15;;;;;;;;;;5029657;28;20148;-68
2022/05/18 08:29:13;;;;;;;10.68;4.72;;;;;;;;;;5031348;28;20072;-68
2022/05/18 08:31:50;;;;;;;7.28;4.35;;;;;;;;;;5025667;28;20053;-71
2022/05/18 08:34:19;;;;;;;6.32;4.28;;;;;;;;;;5028650;28;20037;-69
2022/05/18 08:36:49;;;;;;;5.78;4.10;;;;;;;;;;5025465;28;20132;-70
2022/05/18 08:39:17;;;;;;;9.75;4.85;;;;;;;;;;5026482;28;20045;-69
2022/05/18 08:41:46;;;;;;;8.38;4.32;;;;;;;;;;5027501;28;20103;-69
2022/05/18 08:44:20;;;;;;;8.00;3.42;;;;;;;;;;5025849;28;20384;-69
2022/05/18 08:46:56;;;;;;;10.02;4.45;;;;;;;;;;5012328;28;20045;-69
2022/05/18 08:49:32;;;;;;;7.40;3.70;;;;;;;;;;5023676;28;20111;-69
2022/05/18 08:52:03;;;;;;;11.07;4.38;;;;;;;;;;5028377;28;20143;-68
2022/05/18 08:54:48;;;;;;;5.35;3.58;;;;;;;;;;5040006;28;20057;-68
2022/05/18 08:57:17;;;;;;;;;;;;;;;;;;5040001;28;20049;-68
2022/05/18 08:59:47;;;;;;;12.45;3.72;;;;;;;;;;5029308;28;19925;-69
2022/05/18 09:02:18;;;;;;;5.38;3.10;;;;;;;;;;5028132;28;20076;-70
2022/05/18 09:04:49;;;;;;;4.57;3.30;;;;;;;;;;5015874;28;20054;-68
2022/05/18 09:07:40;;;;;;;12.52;3.20;;;;;;;;;;5001200;28;20077;-70
2022/05/18 09:10:13;;;;;;;5.95;3.40;;;;;;;;;;4997846;28;20057;-71
2022/05/18 09:12:43;;;;;;;6.78;3.40;;;;;;;;;;5007648;28;20134;-69
2022/05/18 09:15:13;;;;;;;4.28;2.92;;;;;;;;;;5008917;28;20045;-70
2022/05/18 09:17:49;;;;;;;5.60;3.20;;;;;;;;;;5009788;28;20050;-69
2022/05/18 09:20:21;;;;;;;4.68;3.03;;;;;;;;;;5010026;28;20046;-69
2022/05/18 09:22:58;;;;;;;8.13;3.55;;;;;;;;;;5008555;28;20084;-71
2022/05/18 09:25:32;;;;;;;6.25;2.97;;;;;;;;;;4992188;28;20082;-69
2022/05/18 09:28:05;;;;;;;6.63;3.63;;;;;;;;;;5002903;28;20081;-68
2022/05/18 09:30:39;;;;;;;3.97;2.63;;;;;;;;;;5006788;28;20116;-69
2022/05/18 09:33:21;;;;;;;5.70;3.20;;;;;;;;;;5004766;28;20315;-69
2022/05/18 09:36:10;;;;;;;4.15;2.70;;;;;;;;;;5010612;28;20056;-69
2022/05/18 09:38:41;;;;;;;3.15;2.50;;;;;;;;;;5003869;28;20050;-69
2022/05/18 09:41:12;;;;;;;5.25;3.17;;;;;;;;;;5005287;28;20101;-68
2022/05/18 09:43:45;;;;;;;4.88;2.70;;;;;;;;;;5014434;28;20141;-68
2022/05/18 09:46:14;;;;;;;6.68;2.72;;;;;;;;;;4995353;28;20050;-68
2022/05/18 09:48:51;;;;;;;4.88;2.90;;;;;;;;;;5005160;28;20764;-69
2022/05/18 09:51:20;;;;;;;6.60;2.83;;;;;;;;;;5005956;28;20077;-69
2022/05/18 09:53:48;;;;;;;4.72;3.00;;;;;;;;;;5004939;28;20077;-68
2022/05/18 09:56:20;;;;;;;4.93;3.00;;;;;;;;;;4997407;28;20047;-68
2022/05/18 09:58:49;;;;;;;4.15;3.05;;;;;;;;;;5005184;28;20136;-68
2022/05/18 10:09:44;;;;;;;3.53;2.42;;;;;;;;;;4989307;28;20050;-70
2022/05/18 10:12:14;;;;;;;5.55;3.10;;;;;;;;;;5003226;28;20092;-69
2022/05/18 10:14:42;;;;;;;4.32;2.90;;;;;;;;;;5003081;28;20093;-71
2022/05/18 10:17:14;;;;;;;2.90;2.42;;;;;;;;;;4995059;28;20058;-70
2022/05/18 10:19:47;;;;;;;3.92;2.95;;;;;;;;;;4992156;28;20124;-69
2022/05/18 10:22:20;;;;;;;3.47;2.08;;;;;;;;;;4988635;28;20610;-70
2022/05/18 10:24:53;;;;;;;6.97;2.70;;;;;;;;;;4993295;28;20483;-70
2022/05/18 10:27:25;;;;;;;4.80;2.22;;;;;;;;;;4988788;28;20042;-71
2022/05/18 10:30:03;;;;;;;3.55;2.42;;;;;;;;;;4992002;28;20410;-71
2022/05/18 10:32:32;;;;;;;3.40;2.42;;;;;;;;;;4992138;28;20113;-70
2022/05/18 10:35:02;;;;;;;3.40;2.15;;;;;;;;;;4994951;28;20038;-69
2022/05/18 10:37:33;;;;;;;3.80;2.28;;;;;;;;;;4993423;28;20050;-69
2022/05/18 10:40:02;;;;;;;5.28;2.03;;;;;;;;;;4989609;28;20050;-69
2022/05/18 10:42:33;;;;;;;3.10;2.17;;;;;;;;;;4979167;28;20068;-69
2022/05/18 10:45:03;;;;;;;4.43;2.25;;;;;;;;;;4988456;28;20048;-69
2022/05/18 10:47:34;;;;;;;3.35;1.98;;;;;;;;;;4989668;28;20054;-70
2022/05/18 10:50:23;;;;;;;2.75;1.85;;;;;;;;;;4992987;28;20453;-69
2022/05/18 10:52:51;;;;;;;2.53;1.40;;;;;;;;;;4974609;28;20047;-70
2022/05/18 10:55:22;;;;;;;4.50;2.45;;;;;;;;;;5001771;28;20117;-69
2022/05/18 10:57:55;;;;;;;3.85;2.22;;;;;;;;;;4989241;28;20061;-69
2022/05/18 11:00:25;;;;;;;3.28;1.90;;;;;;;;;;4978924;28;20042;-69
2022/05/18 11:02:57;;;;;;;7.22;2.08;;;;;;;;;;4983987;28;20073;-70
2022/05/18 11:05:37;;;;;;;3.65;2.30;;;;;;;;;;5017619;28;20152;-70
2022/05/18 11:08:08;;;;;;;3.63;1.98;;;;;;;;;;5021154;28;20088;-70
2022/05/18 11:10:40;;;;;;;3.03;2.50;;;;;;;;;;5026716;28;20073;-70
2022/05/18 11:13:11;;;;;;;4.15;2.38;;;;;;;;;;5029425;28;20092;-70
2022/05/18 11:15:44;;;;;;;3.08;2.30;;;;;;;;;;5019970;28;20100;-69
2022/05/18 11:18:16;;;;;;;4.32;2.70;;;;;;;;;;5021906;28;20136;-69
2022/05/18 11:20:50;;;;;;;3.88;3.00;;;;;;;;;;5019701;28;20060;-70
2022/05/18 11:23:24;;;;;;;6.47;2.72;;;;;;;;;;5030728;28;20041;-70
2022/05/18 11:25:57;;;;;;;4.55;3.30;;;;;;;;;;5024540;28;20056;-73
2022/05/18 11:28:50;;;;;;;4.50;3.03;;;;;;;;;;5023898;28;20056;-71
2022/05/18 11:31:26;;;;;;;3.45;2.85;;;;;;;;;;5023478;28;20046;-70
2022/05/18 11:33:59;;;;;;;4.00;2.78;;;;;;;;;;5018581;28;20050;-69
2022/05/18 11:36:31;;;;;;;3.38;2.70;;;;;;;;;;5026763;28;20069;-69
2022/05/18 11:39:06;;;;;;;3.75;3.03;;;;;;;;;;5028038;28;20104;-69
2022/05/18 11:41:41;;;;;;;4.68;3.15;;;;;;;;;;5027696;28;20301;-70
2022/05/18 11:44:12;;;;;;;3.92;2.38;;;;;;;;;;5020709;28;20104;-70
2022/05/18 11:46:57;;;;;;;4.10;3.42;;;;;;;;;;5026715;28;20045;-70
2022/05/18 11:49:34;;;;;;;3.92;2.90;;;;;;;;;;5016854;28;20045;-69
2022/05/18 11:52:09;;;;;;;6.22;3.28;;;;;;;;;;5027743;28;20061;-69
2022/05/18 11:54:49;;;;;;;5.15;2.70;;;;;;;;;;5023903;28;20085;-71
2022/05/18 11:57:21;;;;;;;5.35;2.72;;;;;;;;;;5027355;28;20436;-69
2022/05/18 11:59:58;;;;;;;4.50;2.83;;;;;;;;;;5021839;28;20057;-71
2022/05/18 12:02:35;;;;;;;3.75;3.20;;;;;;;;;;5019474;28;20049;-70
2022/05/18 12:05:17;;;;;;;4.78;3.40;;;;;;;;;;5016386;28;20152;-70
2022/05/18 12:07:59;;;;;;;4.00;2.70;;;;;;;;;;5014291;28;20498;-73
2022/05/18 12:10:30;;;;;;;3.92;2.47;;;;;;;;;;5018317;28;20056;-69
2022/05/18 12:13:02;;;;;;;4.03;2.50;;;;;;;;;;5021944;28;20633;-72
2022/05/18 12:15:35;;;;;;;3.20;2.40;;;;;;;;;;5020171;28;20482;-69
2022/05/18 12:18:05;;;;;;;3.70;2.33;;;;;;;;;;5017602;28;20111;-72
2022/05/18 12:20:37;;;;;;;4.28;2.40;;;;;;;;;;5019669;28;20053;-69
2022/05/18 12:23:10;;;;;;;4.15;2.30;;;;;;;;;;5017762;28;20603;-71
2022/05/18 12:25:39;;;;;;;4.60;2.50;;;;;;;;;;5017682;28;20049;-70
2022/05/18 12:28:09;;;;;;;5.25;2.75;;;;;;;;;;5003623;28;20584;-70
2022/05/18 12:30:39;;;;;;;4.68;2.63;;;;;;;;;;4997269;28;20082;-70
2022/05/18 12:33:09;;;;;;;4.07;2.85;;;;;;;;;;4998236;28;20132;-69
2022/05/18 12:35:40;;;;;;;3.22;2.58;;;;;;;;;;5000243;28;20053;-69
2022/05/18 12:38:11;;;;;;;3.75;2.33;;;;;;;;;;5009190;28;20513;-69
2022/05/18 12:40:47;;;;;;;3.00;2.25;;;;;;;;;;5006005;28;20080;-69
2022/05/18 12:43:17;;;;;;;4.45;2.20;;;;;;;;;;5007089;28;20053;-72
2022/05/18 12:45:48;;;;;;;2.40;1.98;;;;;;;;;;5004745;28;20056;-70
2022/05/18 12:48:22;;;;;;;3.75;1.95;;;;;;;;;;4996615;28;20100;-70
2022/05/18 12:50:57;;;;;;;9.63;2.05;;;;;;;;;;5004190;28;20087;-70
2022/05/18 12:53:27;;;;;;;4.30;2.50;;;;;;;;;;4996889;28;20585;-69
2022/05/18 12:55:59;;;;;;;2.55;1.98;;;;;;;;;;4997571;28;20049;-71
2022/05/18 12:58:29;;;;;;;3.60;2.00;;;;;;;;;;4997073;28;20600;-70
2022/05/18 13:01:01;;;;;;;4.15;1.88;;;;;;;;;;4997126;28;20557;-71
2022/05/18 13:03:38;;;;;;;3.15;1.83;;;;;;;;;;5000938;28;20060;-71
2022/05/18 13:06:17;;;;;;;2.47;1.75;;;;;;;;;;5017081;28;20834;-72
2022/05/18 13:09:01;;;;;;;2.50;1.75;;;;;;;;;;5019765;28;20428;-72
2022/05/18 13:11:34;;;;;;;3.80;1.80;;;;;;;;;;5022519;28;20120;-72
2022/05/18 13:14:27;;;;;;;1.52;1.42;;;;;;;;;;5022037;28;20537;-70
2022/05/18 13:16:59;;;;;;;4.80;1.75;;;;;;;;;;5019375;28;20053;-70
2022/05/18 13:19:29;;;;;;;1.80;1.48;;;;;;;;;;5012673;28;20532;-70
2022/05/18 13:22:01;;;;;;;2.40;1.17;;;;;;;;;;5017338;28;20144;-70
2022/05/18 13:24:35;;;;;;;2.78;1.35;;;;;;;;;;5014348;28;20496;-73
2022/05/18 13:27:07;;;;;;;1.67;1.38;;;;;;;;;;5014994;28;20105;-74
2022/05/18 13:29:36;;;;;;;4.47;1.20;;;;;;;;;;4980964;28;20133;-70
2022/05/18 13:32:07;;;;;;;1.98;1.40;;;;;;;;;;5017775;28;20128;-71
2022/05/18 13:34:41;;;;;;;1.80;1.13;;;;;;;;;;5022398;28;20373;-71
2022/05/18 13:37:09;;;;;;;2.15;1.17;;;;;;;;;;5016168;28;20105;-71
2022/05/18 13:39:41;;;;;;;2.08;1.65;;;;;;;;;;5018364;28;20057;-70
2022/05/18 13:42:12;;;;;;;5.35;2.03;;;;;;;;;;5020122;28;20057;-71
2022/05/18 13:44:42;;;;;;;1.60;1.30;;;;;;;;;;5021699;28;20049;-70
2022/05/18 13:47:12;;;;;;;2.97;0.98;;;;;;;;;;5013719;28;20061;-72
2022/05/18 13:49:41;;;;;;;2.13;1.30;;;;;;;;;;5005111;28;20134;-72
2022/05/18 13:52:13;;;;;;;1.13;1.00;;;;;;;;;;5004996;28;20046;-71
2022/05/18 13:54:50;;;;;;;1.90;1.05;;;;;;;;;;5004604;28;20057;-72
2022/05/18 13:57:20;;;;;;;1.80;1.30;;;;;;;;;;5002966;28;20069;-72
2022/05/18 13:59:56;;;;;;;1.73;1.20;;;;;;;;;;5019871;28;20096;-72
2022/05/18 14:02:26;;;;;;;1.83;1.13;;;;;;;;;;5027282;28;20133;-75
2022/05/18 14:04:58;;;;;;;2.03;1.58;;;;;;;;;;5030630;28;20143;-71
2022/05/18 14:07:28;;;;;;;1.85;1.25;;;;;;;;;;5026135;28;20041;-72
2022/05/18 14:10:20;;;;;;;2.05;1.30;;;;;;;;;;5020147;28;20045;-72
2022/05/18 14:12:49;;;;;;;1.77;1.52;;;;;;;;;;5022296;28;20048;-71
2022/05/18 14:15:19;;;;;;;3.67;1.50;;;;;;;;;;5024290;28;20046;-72
2022/05/18 14:17:51;;;;;;;3.60;1.48;;;;;;;;;;5020256;28;20489;-72
2022/05/18 14:20:23;;;;;;;2.30;1.63;;;;;;;;;;5021739;28;20053;-72
2022/05/18 14:23:16;;;;;;;3.35;1.63;;;;;;;;;;5020747;28;20400;-71
2022/05/18 14:25:50;;;;;;;2.92;1.42;;;;;;;;;;5017460;28;20080;-70
2022/05/18 14:28:20;;;;;;;1.13;1.02;;;;;;;;;;5031296;28;20049;-71
2022/05/18 14:30:48;;;;;;;2.53;1.40;;;;;;;;;;5030113;28;20077;-71
2022/05/18 14:33:31;;;;;;;3.00;1.70;;;;;;;;;;5022848;28;20378;-71
2022/05/18 14:36:02;;;;;;;2.88;1.80;;;;;;;;;;5021687;28;20049;-72
2022/05/18 14:38:32;;;;;;;2.08;1.40;;;;;;;;;;5023428;28;20049;-71
2022/05/18 14:41:15;;;;;;;3.88;1.25;;;;;;;;;;5023116;28;20053;-73
2022/05/18 14:43:44;;;;;;;1.60;1.50;;;;;;;;;;5025091;28;20072;-71
2022/05/18 14:46:21;;;;;;;1.90;1.50;;;;;;;;;;5026942;28;20054;-73
2022/05/18 14:49:00;;;;;;;2.50;1.80;;;;;;;;;;5024677;28;20064;-72
2022/05/18 14:51:30;;;;;;;5.85;1.80;;;;;;;;;;5017857;28;20068;-73
2022/05/18 14:54:01;;;;;;;3.00;1.60;;;;;;;;;;5028022;28;20497;-71
2022/05/18 14:56:32;;;;;;;2.95;1.38;;;;;;;;;;5026072;28;20583;-71
2022/05/18 14:59:01;;;;;;;1.90;1.45;;;;;;;;;;5026378;28;20045;-71
2022/05/18 15:01:34;;;;;;;2.40;1.50;;;;;;;;;;5015025;28;20068;-71
2022/05/18 15:04:11;;;;;;;2.50;1.40;;;;;;;;;;5025594;28;20050;-72
2022/05/18 15:06:39;;;;;;;1.48;1.10;;;;;;;;;;5025365;28;20080;-73
2022/05/18 15:09:08;;;;;;;2.70;1.50;;;;;;;;;;5022638;28;20052;-74
2022/05/18 15:11:42;;;;;;;2.13;1.30;;;;;;;;;;5024095;28;20096;-71
2022/05/18 15:14:28;;;;;;;1.75;1.20;;;;;;;;;;5035320;28;20049;-71
2022/05/18 15:17:00;;;;;;;4.47;1.20;;;;;;;;;;5015016;28;20174;-72
2022/05/18 15:19:32;;;;;;;2.25;1.40;;;;;;;;;;5024955;28;20049;-72
2022/05/18 15:22:09;;;;;;;3.08;1.65;;;;;;;;;;5027724;28;20089;-72